Time;durP1;ratioP1;P1;durP2;ratioP2;P2;SDS_P1;SDS_P2;PMS_P1;PMS_P2;Temp;Humidity;BMP_temperature;BMP_pressure;BME280_temperature;BME280_humidity;BME280_pressure;Samples;Min_cycle;Max_cycle;Signal;HPM_P1;HPM_P2
2021/06/07 00:01:27;;;;;;;2.78;1.70;;;;;;;;;;6916188;28;20049;-83
2021/06/07 00:04:47;;;;;;;4.20;2.15;;;;;;;;;;6916959;28;20048;-83
2021/06/07 00:08:08;;;;;;;5.70;1.63;;;;;;;;;;6915457;28;20042;-83
2021/06/07 00:11:28;;;;;;;7.47;1.75;;;;;;;;;;6916370;28;20046;-82
2021/06/07 00:14:49;;;;;;;6.75;1.40;;;;;;;;;;6916854;28;20050;-82
2021/06/07 00:18:09;;;;;;;6.65;1.90;;;;;;;;;;6916001;28;20046;-82
2021/06/07 00:21:30;;;;;;;2.00;1.20;;;;;;;;;;6916604;28;20070;-82
2021/06/07 00:24:50;;;;;;;5.20;1.67;;;;;;;;;;6914832;28;20381;-82
2021/06/07 00:28:11;;;;;;;5.10;1.35;;;;;;;;;;6915171;28;20532;-82
2021/06/07 00:31:32;;;;;;;3.58;1.77;;;;;;;;;;6930410;22;20111;-82
2021/06/07 00:34:52;;;;;;;4.00;1.73;;;;;;;;;;6935278;28;20069;-83
2021/06/07 00:38:13;;;;;;;3.00;1.60;;;;;;;;;;6942310;28;20056;-84
2021/06/07 00:41:33;;;;;;;3.20;1.40;;;;;;;;;;6940713;28;20120;-84
2021/06/07 00:44:53;;;;;;;5.38;1.80;;;;;;;;;;6942857;28;20380;-84
2021/06/07 00:48:16;;;;;;;3.15;1.30;;;;;;;;;;6916516;28;20050;-83
2021/06/07 00:51:37;;;;;;;5.30;1.65;;;;;;;;;;6922058;28;20033;-83
2021/06/07 00:54:57;;;;;;;2.55;1.45;;;;;;;;;;6926506;28;20057;-83
2021/06/07 00:58:21;;;;;;;4.72;1.50;;;;;;;;;;6938664;28;20152;-83
2021/06/07 01:01:42;;;;;;;4.05;1.50;;;;;;;;;;6941923;28;20128;-83
2021/06/07 01:05:03;;;;;;;1.75;1.48;;;;;;;;;;6942262;28;20395;-83
2021/06/07 01:08:24;;;;;;;3.80;1.45;;;;;;;;;;6933502;28;20046;-83
2021/06/07 01:11:44;;;;;;;4.00;1.60;;;;;;;;;;6926893;28;20060;-82
2021/06/07 01:15:07;;;;;;;2.58;1.27;;;;;;;;;;6918297;28;20058;-82
2021/06/07 01:18:30;;;;;;;2.30;1.30;;;;;;;;;;6922358;28;20460;-83
2021/06/07 01:21:50;;;;;;;7.78;1.80;;;;;;;;;;6921226;28;20423;-82
2021/06/07 01:25:16;;;;;;;3.13;1.50;;;;;;;;;;6934770;28;20132;-82
2021/06/07 01:28:38;;;;;;;1.88;1.42;;;;;;;;;;6919113;28;20057;-82
2021/06/07 01:31:58;;;;;;;5.97;1.50;;;;;;;;;;6914655;28;20042;-83
2021/06/07 01:35:19;;;;;;;2.13;1.40;;;;;;;;;;6941612;28;20115;-83
2021/06/07 01:38:40;;;;;;;4.65;1.95;;;;;;;;;;6942111;28;20093;-83
2021/06/07 01:42:00;;;;;;;5.93;1.80;;;;;;;;;;6935923;28;20042;-82
2021/06/07 01:45:23;;;;;;;8.38;1.52;;;;;;;;;;6951440;28;20127;-82
2021/06/07 01:48:43;;;;;;;2.83;1.33;;;;;;;;;;6913135;28;20077;-82
2021/06/07 01:52:04;;;;;;;3.28;1.55;;;;;;;;;;6939839;28;20041;-82
2021/06/07 01:55:32;;;;;;;4.07;1.58;;;;;;;;;;6943447;28;20611;-82
2021/06/07 01:58:52;;;;;;;2.78;1.08;;;;;;;;;;6914283;28;20085;-82
2021/06/07 02:02:12;;;;;;;3.95;1.75;;;;;;;;;;6919916;28;20395;-82
2021/06/07 02:05:35;;;;;;;2.92;1.33;;;;;;;;;;6914274;28;20132;-82
2021/06/07 02:08:56;;;;;;;5.15;1.30;;;;;;;;;;6922921;28;20126;-82
2021/06/07 02:12:16;;;;;;;2.47;1.42;;;;;;;;;;6930696;28;20049;-82
2021/06/07 02:15:37;;;;;;;2.75;1.35;;;;;;;;;;6928740;28;20071;-82
2021/06/07 02:18:58;;;;;;;4.20;1.58;;;;;;;;;;6921785;28;20144;-82
2021/06/07 02:22:18;;;;;;;3.95;1.35;;;;;;;;;;6925761;28;20440;-82
2021/06/07 02:25:39;;;;;;;2.92;1.42;;;;;;;;;;6913083;28;20046;-82
2021/06/07 02:29:07;;;;;;;3.85;1.63;;;;;;;;;;6926756;28;20063;-82
2021/06/07 02:32:27;;;;;;;4.50;1.30;;;;;;;;;;6934429;28;20033;-82
2021/06/07 02:35:48;;;;;;;2.95;1.17;;;;;;;;;;6932406;28;20140;-82
2021/06/07 02:39:11;;;;;;;3.63;1.75;;;;;;;;;;6917252;28;20050;-82
2021/06/07 02:42:31;;;;;;;9.05;1.80;;;;;;;;;;6921306;28;20408;-82
2021/06/07 02:45:51;;;;;;;2.88;1.30;;;;;;;;;;6911214;28;20522;-82
2021/06/07 02:49:12;;;;;;;2.58;1.20;;;;;;;;;;6927844;28;20164;-82
2021/06/07 02:52:33;;;;;;;6.70;1.27;;;;;;;;;;6939960;28;20396;-82
2021/06/07 02:55:53;;;;;;;1.02;0.93;;;;;;;;;;6948328;28;20073;-82
2021/06/07 02:59:14;;;;;;;2.45;1.25;;;;;;;;;;6930293;28;20045;-82
2021/06/07 03:02:34;;;;;;;2.13;1.30;;;;;;;;;;6933825;28;20136;-81
2021/06/07 03:05:58;;;;;;;2.45;1.40;;;;;;;;;;6913993;28;20034;-81
2021/06/07 03:09:18;;;;;;;2.83;1.45;;;;;;;;;;6913553;28;20050;-81
2021/06/07 03:12:39;;;;;;;3.03;1.23;;;;;;;;;;6935866;28;20095;-81
2021/06/07 03:16:00;;;;;;;2.80;1.10;;;;;;;;;;6918070;28;20108;-82
2021/06/07 03:19:20;;;;;;;4.00;1.08;;;;;;;;;;6916833;28;20077;-81
2021/06/07 03:22:41;;;;;;;2.30;1.10;;;;;;;;;;6923392;28;20436;-82
2021/06/07 03:26:01;;;;;;;2.05;1.23;;;;;;;;;;6917860;28;20049;-82
2021/06/07 03:29:22;;;;;;;2.00;1.08;;;;;;;;;;6920583;28;20053;-82
2021/06/07 03:32:42;;;;;;;1.75;0.80;;;;;;;;;;6933221;28;20065;-82
2021/06/07 03:36:04;;;;;;;2.00;1.33;;;;;;;;;;6917388;28;20093;-82
2021/06/07 03:39:25;;;;;;;2.03;0.95;;;;;;;;;;6917836;28;20057;-82
2021/06/07 03:42:46;;;;;;;6.75;1.17;;;;;;;;;;6923750;28;20388;-82
2021/06/07 03:46:06;;;;;;;4.55;1.40;;;;;;;;;;6916404;28;20050;-82
2021/06/07 03:49:27;;;;;;;4.63;1.20;;;;;;;;;;6918233;28;20058;-82
2021/06/07 03:52:47;;;;;;;3.75;1.35;;;;;;;;;;6925334;28;20119;-81
2021/06/07 03:56:08;;;;;;;1.10;0.93;;;;;;;;;;6945053;28;20058;-81
2021/06/07 03:59:28;;;;;;;1.98;1.10;;;;;;;;;;6910764;28;20395;-81
2021/06/07 04:02:49;;;;;;;3.13;1.10;;;;;;;;;;6910420;28;20042;-81
2021/06/07 04:06:12;;;;;;;2.78;1.35;;;;;;;;;;6931194;28;20054;-82
2021/06/07 04:09:32;;;;;;;2.38;1.17;;;;;;;;;;6936291;28;20065;-81
2021/06/07 04:12:53;;;;;;;2.25;1.33;;;;;;;;;;6911614;28;20107;-82
2021/06/07 04:16:14;;;;;;;2.72;1.42;;;;;;;;;;6932320;28;20051;-81
2021/06/07 04:19:35;;;;;;;5.05;1.30;;;;;;;;;;6918755;28;20139;-82
2021/06/07 04:22:55;;;;;;;1.63;1.40;;;;;;;;;;6938107;28;20096;-82
2021/06/07 04:26:16;;;;;;;3.17;1.30;;;;;;;;;;6926208;28;20046;-82
2021/06/07 04:29:36;;;;;;;4.78;1.27;;;;;;;;;;6913205;28;20065;-82
2021/06/07 04:32:58;;;;;;;1.55;1.20;;;;;;;;;;6935281;28;20114;-82
2021/06/07 04:36:18;;;;;;;2.83;1.40;;;;;;;;;;6936116;28;20062;-82
2021/06/07 04:39:39;;;;;;;2.05;1.00;;;;;;;;;;6933138;28;20054;-82
2021/06/07 04:43:02;;;;;;;2.90;1.30;;;;;;;;;;6913622;28;20038;-83
2021/06/07 04:46:22;;;;;;;1.27;1.00;;;;;;;;;;6933627;28;20524;-82
2021/06/07 04:49:42;;;;;;;2.08;1.00;;;;;;;;;;6928667;28;20037;-83
2021/06/07 04:53:04;;;;;;;1.77;1.38;;;;;;;;;;6928859;28;20060;-82
2021/06/07 04:56:25;;;;;;;1.88;1.27;;;;;;;;;;6910087;28;20045;-82
2021/06/07 04:59:45;;;;;;;2.08;1.30;;;;;;;;;;6915549;28;20151;-81
2021/06/07 05:03:06;;;;;;;2.95;1.10;;;;;;;;;;6933199;28;20053;-81
2021/06/07 05:06:26;;;;;;;2.33;1.00;;;;;;;;;;6912901;28;20499;-81
2021/06/07 05:09:46;;;;;;;1.27;1.02;;;;;;;;;;6920134;28;20080;-81
2021/06/07 05:13:07;;;;;;;1.02;0.90;;;;;;;;;;6921759;28;20113;-81
2021/06/07 05:16:27;;;;;;;3.63;1.40;;;;;;;;;;6917668;28;20077;-81
2021/06/07 05:19:49;;;;;;;5.00;1.20;;;;;;;;;;6942012;28;20144;-83
2021/06/07 05:23:11;;;;;;;3.35;1.58;;;;;;;;;;6918445;28;20054;-85
2021/06/07 05:26:31;;;;;;;2.17;1.27;;;;;;;;;;6930806;28;20053;-84
2021/06/07 05:29:52;;;;;;;3.55;1.75;;;;;;;;;;6924010;28;20042;-83
2021/06/07 05:33:12;;;;;;;4.00;1.60;;;;;;;;;;6921973;28;20463;-85
2021/06/07 05:36:33;;;;;;;6.93;3.28;;;;;;;;;;6944184;28;20069;-85
2021/06/07 05:39:53;;;;;;;4.38;2.67;;;;;;;;;;6928434;28;20049;-83
2021/06/07 05:43:17;;;;;;;4.53;2.55;;;;;;;;;;6938475;28;20055;-83
2021/06/07 05:46:38;;;;;;;9.45;6.57;;;;;;;;;;6923026;28;20049;-83
2021/06/07 05:49:59;;;;;;;6.75;6.10;;;;;;;;;;6926965;28;20045;-83
2021/06/07 05:53:20;;;;;;;7.28;6.00;;;;;;;;;;6928979;28;20049;-83
2021/06/07 05:56:41;;;;;;;4.68;2.58;;;;;;;;;;6946490;28;20046;-84
2021/06/07 06:00:02;;;;;;;6.45;2.65;;;;;;;;;;6926674;28;20068;-83
2021/06/07 06:03:23;;;;;;;5.00;2.42;;;;;;;;;;6936837;28;20100;-83
2021/06/07 06:06:43;;;;;;;2.75;1.65;;;;;;;;;;6930951;28;20045;-84
2021/06/07 06:10:05;;;;;;;5.60;1.75;;;;;;;;;;6917102;28;20096;-84
2021/06/07 06:13:26;;;;;;;5.93;1.85;;;;;;;;;;6923026;28;20417;-83
2021/06/07 06:16:46;;;;;;;41.42;2.70;;;;;;;;;;6925434;28;20050;-83
2021/06/07 06:20:07;;;;;;;12.52;2.22;;;;;;;;;;6934211;28;20391;-82
2021/06/07 06:23:27;;;;;;;11.05;2.10;;;;;;;;;;6926484;28;20047;-83
2021/06/07 06:26:48;;;;;;;6.93;1.70;;;;;;;;;;6922568;28;20054;-82
2021/06/07 06:30:15;;;;;;;14.43;2.17;;;;;;;;;;6932293;28;20372;-80
2021/06/07 06:33:36;;;;;;;10.68;1.95;;;;;;;;;;6940537;28;20133;-80
2021/06/07 06:36:56;;;;;;;7.90;2.05;;;;;;;;;;6932950;28;20054;-83
2021/06/07 06:40:22;;;;;;;8.35;1.65;;;;;;;;;;6915792;28;20050;-82
2021/06/07 06:43:43;;;;;;;7.53;1.80;;;;;;;;;;6915250;28;20058;-82
2021/06/07 06:47:04;;;;;;;5.05;1.60;;;;;;;;;;6938603;28;21633;-82
2021/06/07 06:50:34;;;;;;;7.80;2.03;;;;;;;;;;6934764;28;20103;-82
2021/06/07 06:53:54;;;;;;;5.13;1.50;;;;;;;;;;6940888;28;20054;-82
2021/06/07 06:57:14;;;;;;;10.68;1.50;;;;;;;;;;6916251;28;20116;-82
2021/06/07 07:00:36;;;;;;;2.85;1.45;;;;;;;;;;6931938;28;20495;-82
2021/06/07 07:03:57;;;;;;;5.40;1.70;;;;;;;;;;6942730;28;20446;-81
2021/06/07 07:07:17;;;;;;;4.10;1.50;;;;;;;;;;6906770;28;20560;-82
2021/06/07 07:10:41;;;;;;;6.53;1.70;;;;;;;;;;6923376;28;20455;-81
2021/06/07 07:14:01;;;;;;;3.83;1.65;;;;;;;;;;6922155;28;20058;-82
2021/06/07 07:17:22;;;;;;;6.38;1.55;;;;;;;;;;6922266;28;20050;-82
2021/06/07 07:20:43;;;;;;;4.53;1.60;;;;;;;;;;6932895;28;20037;-81
2021/06/07 07:24:03;;;;;;;5.63;1.58;;;;;;;;;;6938363;28;20450;-81
2021/06/07 07:27:24;;;;;;;2.70;1.52;;;;;;;;;;6939929;28;20049;-82
2021/06/07 07:30:46;;;;;;;9.45;1.50;;;;;;;;;;6924771;28;20042;-81
2021/06/07 07:34:06;;;;;;;5.30;1.75;;;;;;;;;;6934666;28;20071;-81
2021/06/07 07:37:27;;;;;;;2.65;1.33;;;;;;;;;;6939563;28;20403;-82
2021/06/07 07:40:47;;;;;;;15.50;2.08;;;;;;;;;;6913880;28;20141;-82
2021/06/07 07:44:08;;;;;;;13.13;1.63;;;;;;;;;;6924722;28;20050;-82
2021/06/07 07:47:29;;;;;;;2.40;1.33;;;;;;;;;;6919780;28;20400;-83
2021/06/07 07:50:49;;;;;;;3.35;1.60;;;;;;;;;;6930471;28;20656;-83
2021/06/07 07:54:10;;;;;;;4.18;1.70;;;;;;;;;;6921045;28;20051;-82
2021/06/07 07:57:30;;;;;;;4.35;1.50;;;;;;;;;;6923646;28;20487;-82
2021/06/07 08:00:52;;;;;;;8.82;1.67;;;;;;;;;;6955087;28;20141;-82
2021/06/07 08:04:12;;;;;;;8.60;1.88;;;;;;;;;;6925301;28;20103;-82
2021/06/07 08:07:34;;;;;;;1.60;1.17;;;;;;;;;;6909680;28;20367;-83
2021/06/07 08:10:56;;;;;;;6.18;1.40;;;;;;;;;;6938963;28;20132;-84
2021/06/07 08:14:17;;;;;;;1.40;1.00;;;;;;;;;;6939621;28;20051;-82
2021/06/07 08:17:38;;;;;;;2.30;1.52;;;;;;;;;;6935209;28;20054;-83
2021/06/07 08:20:59;;;;;;;2.60;1.75;;;;;;;;;;6923655;28;20092;-82
2021/06/07 08:24:20;;;;;;;4.53;1.65;;;;;;;;;;6953944;28;20049;-82
2021/06/07 08:27:40;;;;;;;2.90;1.30;;;;;;;;;;6928513;28;20046;-83
2021/06/07 08:31:01;;;;;;;2.10;1.25;;;;;;;;;;6928078;28;20080;-84
2021/06/07 08:34:21;;;;;;;2.25;1.30;;;;;;;;;;6947959;28;20069;-83
2021/06/07 08:37:42;;;;;;;4.07;1.70;;;;;;;;;;6920065;28;21778;-83
2021/06/07 08:41:03;;;;;;;4.88;1.63;;;;;;;;;;6947329;28;20057;-84
2021/06/07 08:44:25;;;;;;;2.33;1.73;;;;;;;;;;6949790;28;20477;-84
2021/06/07 08:47:47;;;;;;;1.40;1.10;;;;;;;;;;6919050;28;20045;-84
2021/06/07 08:51:07;;;;;;;4.03;1.40;;;;;;;;;;6952867;28;20574;-83
2021/06/07 08:54:30;;;;;;;2.65;1.23;;;;;;;;;;6940608;28;20042;-82
2021/06/07 08:57:53;;;;;;;4.43;1.60;;;;;;;;;;6950942;28;20049;-82
2021/06/07 09:01:14;;;;;;;1.98;1.35;;;;;;;;;;6944933;28;20458;-82
2021/06/07 09:04:46;;;;;;;3.42;1.67;;;;;;;;;;6919002;28;20499;-83
2021/06/07 09:08:16;;;;;;;5.22;1.65;;;;;;;;;;6910527;28;20103;-83
2021/06/07 09:11:50;;;;;;;2.42;1.42;;;;;;;;;;6945268;28;20042;-82
2021/06/07 09:15:35;;;;;;;2.20;1.40;;;;;;;;;;6951393;28;20183;-82
2021/06/07 09:18:56;;;;;;;6.20;1.35;;;;;;;;;;6937551;28;20050;-82
2021/06/07 09:22:19;;;;;;;3.53;1.30;;;;;;;;;;6935119;28;20144;-81
2021/06/07 09:25:45;;;;;;;3.35;1.50;;;;;;;;;;6919244;28;20103;-83
2021/06/07 09:29:14;;;;;;;4.57;1.35;;;;;;;;;;6921499;28;20503;-82
2021/06/07 09:32:34;;;;;;;;;;;;;;;;;;6921842;28;20136;-82
2021/06/07 09:36:27;;;;;;;2.77;1.20;;;;;;;;;;6948347;28;19928;-81
2021/06/07 09:39:48;;;;;;;2.88;1.42;;;;;;;;;;6941236;28;20055;-81
2021/06/07 09:43:08;;;;;;;4.22;1.70;;;;;;;;;;6944732;28;20041;-82
2021/06/07 09:46:30;;;;;;;4.47;1.40;;;;;;;;;;6963386;28;20075;-84
2021/06/07 09:49:58;;;;;;;6.68;1.95;;;;;;;;;;6910284;28;20053;-83
2021/06/07 09:53:57;;;;;;;5.05;1.58;;;;;;;;;;6916817;28;20033;-81
2021/06/07 09:57:19;;;;;;;2.47;1.75;;;;;;;;;;6915048;28;20073;-82
2021/06/07 10:00:48;;;;;;;6.10;1.52;;;;;;;;;;6923258;28;20054;-82
2021/06/07 10:04:08;;;;;;;4.15;1.65;;;;;;;;;;6914861;28;20058;-82
2021/06/07 10:07:29;;;;;;;3.75;1.50;;;;;;;;;;6916824;28;20104;-81
2021/06/07 10:10:54;;;;;;;6.40;1.95;;;;;;;;;;6919611;28;20037;-82
2021/06/07 10:14:20;;;;;;;8.10;1.60;;;;;;;;;;6923263;28;20470;-82
2021/06/07 10:17:41;;;;;;;3.72;1.50;;;;;;;;;;6922905;28;20407;-80
2021/06/07 10:21:02;;;;;;;5.90;1.60;;;;;;;;;;6932601;28;20506;-78
2021/06/07 10:24:22;;;;;;;4.50;1.75;;;;;;;;;;6940098;28;20045;-79
2021/06/07 10:27:43;;;;;;;4.80;1.80;;;;;;;;;;6937797;28;20521;-81
2021/06/07 10:31:15;;;;;;;4.22;1.85;;;;;;;;;;6960141;28;20140;-83
2021/06/07 10:34:49;;;;;;;5.97;1.98;;;;;;;;;;6924332;28;20471;-82
2021/06/07 10:38:10;;;;;;;2.25;1.52;;;;;;;;;;6926139;28;20071;-82
2021/06/07 10:41:30;;;;;;;3.67;1.70;;;;;;;;;;6941130;28;20057;-83
2021/06/07 10:44:56;;;;;;;3.63;1.70;;;;;;;;;;6936937;28;20637;-82
2021/06/07 10:48:32;;;;;;;6.22;2.20;;;;;;;;;;6913720;28;20056;-83
2021/06/07 10:52:07;;;;;;;2.78;1.58;;;;;;;;;;6925722;28;20049;-84
2021/06/07 10:55:29;;;;;;;5.72;1.88;;;;;;;;;;6912327;28;20128;-84
2021/06/07 10:58:51;;;;;;;3.38;1.65;;;;;;;;;;6937117;28;20087;-85
2021/06/07 11:02:18;;;;;;;3.47;1.70;;;;;;;;;;6932458;28;20579;-86
2021/06/07 11:05:39;;;;;;;5.60;1.95;;;;;;;;;;6939772;28;20510;-82
2021/06/07 11:09:01;;;;;;;4.22;1.40;;;;;;;;;;6938898;28;20046;-83
2021/06/07 11:12:31;;;;;;;4.75;1.42;;;;;;;;;;6936404;28;20080;-84
2021/06/07 11:15:54;;;;;;;3.28;1.65;;;;;;;;;;6933035;28;20046;-84
2021/06/07 11:19:19;;;;;;;3.15;1.60;;;;;;;;;;6933910;28;20512;-83
2021/06/07 11:23:08;;;;;;;3.97;1.50;;;;;;;;;;6916872;28;20045;-85
2021/06/07 11:26:40;;;;;;;3.80;1.67;;;;;;;;;;6947718;28;20152;-80
2021/06/07 11:30:15;;;;;;;2.22;1.83;;;;;;;;;;6925032;28;20054;-80
2021/06/07 11:33:51;;;;;;;2.97;1.65;;;;;;;;;;6912599;28;20049;-81
2021/06/07 11:37:14;;;;;;;2.95;1.83;;;;;;;;;;6913154;28;20451;-83
2021/06/07 11:40:38;;;;;;;10.15;1.77;;;;;;;;;;6924572;28;20136;-84
2021/06/07 11:43:59;;;;;;;8.90;1.88;;;;;;;;;;6927190;28;20041;-83
2021/06/07 11:47:22;;;;;;;4.32;1.83;;;;;;;;;;6928345;28;20413;-83
2021/06/07 11:50:43;;;;;;;19.27;1.98;;;;;;;;;;6907358;28;20057;-83
2021/06/07 11:54:27;;;;;;;2.20;2.00;;;;;;;;;;6932028;28;20046;-84
2021/06/07 11:57:49;;;;;;;7.93;2.13;;;;;;;;;;6918040;28;20484;-83
2021/06/07 12:01:09;;;;;;;4.05;1.83;;;;;;;;;;6920587;28;20046;-83
2021/06/07 12:04:32;;;;;;;3.63;1.95;;;;;;;;;;6934777;28;20045;-84
2021/06/07 12:07:52;;;;;;;4.10;2.00;;;;;;;;;;6939226;28;20047;-82
2021/06/07 12:11:13;;;;;;;9.35;2.20;;;;;;;;;;6930324;28;20049;-83
2021/06/07 12:14:39;;;;;;;3.47;2.08;;;;;;;;;;6926363;28;20100;-82
2021/06/07 12:18:00;;;;;;;2.20;2.00;;;;;;;;;;6920691;28;20100;-81
2021/06/07 12:21:23;;;;;;;2.72;2.28;;;;;;;;;;6912644;28;20362;-82
2021/06/07 12:28:47;;;;;;;4.72;2.00;;;;;;;;;;6913679;28;20052;-82
2021/06/07 12:32:13;;;;;;;2.38;2.00;;;;;;;;;;6966295;23;20061;-82
2021/06/07 12:35:36;;;;;;;7.18;2.63;;;;;;;;;;6949342;28;20081;-81
2021/06/07 12:38:56;;;;;;;1.88;1.77;;;;;;;;;;6934378;28;20046;-80
2021/06/07 12:46:06;;;;;;;8.27;2.17;;;;;;;;;;6888527;28;20054;-81
2021/06/07 12:49:30;;;;;;;2.33;2.13;;;;;;;;;;6895167;28;20131;-81
2021/06/07 12:52:56;;;;;;;4.15;2.10;;;;;;;;;;6868426;28;20054;-82
2021/06/07 12:56:30;;;;;;;7.28;2.85;;;;;;;;;;6896793;28;20058;-83
2021/06/07 13:00:12;;;;;;;13.13;3.25;;;;;;;;;;6847068;28;20169;-83
2021/06/07 13:03:36;;;;;;;8.73;3.33;;;;;;;;;;6819346;28;20082;-83
2021/06/07 13:06:56;;;;;;;6.93;3.78;;;;;;;;;;6822701;28;20046;-83
2021/06/07 13:10:18;;;;;;;3.67;3.20;;;;;;;;;;6826409;28;20055;-84
2021/06/07 13:36:41;;;;;;;4.38;3.08;;;;;;;;;;7105676;27;20139;-82
2021/06/07 13:40:20;;;;;;;4.38;3.00;;;;;;;;;;7113156;27;20041;-80
2021/06/07 13:43:41;;;;;;;5.35;2.67;;;;;;;;;;7122124;27;20046;-84
2021/06/07 13:47:05;;;;;;;3.10;2.60;;;;;;;;;;7112770;27;20038;-85
2021/06/07 13:50:30;;;;;;;4.72;2.40;;;;;;;;;;7113679;27;20039;-83
2021/06/07 13:53:51;;;;;;;4.72;2.30;;;;;;;;;;7075301;27;20047;-83
2021/06/07 13:57:11;;;;;;;2.28;2.05;;;;;;;;;;7105135;27;20057;-84
2021/06/07 14:00:35;;;;;;;5.53;2.75;;;;;;;;;;7106235;27;20074;-84
2021/06/07 14:03:59;;;;;;;4.00;2.38;;;;;;;;;;7081792;27;20064;-83
2021/06/07 14:07:20;;;;;;;3.30;2.30;;;;;;;;;;7114741;27;20050;-84
2021/06/07 14:10:40;;;;;;;5.18;2.10;;;;;;;;;;7106486;27;20078;-83
2021/06/07 14:14:03;;;;;;;3.17;2.30;;;;;;;;;;7107124;27;20070;-81
2021/06/07 14:17:25;;;;;;;4.32;2.33;;;;;;;;;;7113248;27;20127;-82
2021/06/07 14:20:47;;;;;;;3.05;2.45;;;;;;;;;;7095722;27;21045;-83
2021/06/07 14:27:47;;;;;;;4.70;2.65;;;;;;;;;;7103523;27;20048;-80
2021/06/07 14:31:09;;;;;;;3.53;2.85;;;;;;;;;;7105069;27;20151;-80
2021/06/07 14:34:30;;;;;;;4.47;2.58;;;;;;;;;;7098153;27;20043;-79
2021/06/07 14:37:50;;;;;;;2.75;2.55;;;;;;;;;;7086089;28;20054;-80
2021/06/07 14:41:10;;;;;;;3.72;2.28;;;;;;;;;;7091925;28;20096;-79
2021/06/07 14:44:31;;;;;;;5.22;2.47;;;;;;;;;;7091206;28;20040;-79
2021/06/07 14:47:51;;;;;;;4.15;2.88;;;;;;;;;;7086255;28;20040;-79
2021/06/07 14:51:13;;;;;;;3.53;2.85;;;;;;;;;;7081855;27;20043;-80
2021/06/07 14:54:33;;;;;;;3.72;2.63;;;;;;;;;;7085779;28;20039;-79
2021/06/07 14:57:54;;;;;;;2.50;2.30;;;;;;;;;;7085784;28;20074;-80
2021/06/07 15:01:14;;;;;;;2.95;2.42;;;;;;;;;;7090469;28;20043;-79
2021/06/07 15:04:34;;;;;;;5.65;2.72;;;;;;;;;;7091835;28;20071;-79
2021/06/07 15:07:55;;;;;;;3.30;2.72;;;;;;;;;;7088389;28;20045;-79
2021/06/07 15:11:15;;;;;;;3.22;2.67;;;;;;;;;;7082409;28;20063;-81
2021/06/07 15:14:36;;;;;;;4.88;2.67;;;;;;;;;;7073262;28;20105;-81
2021/06/07 15:18:01;;;;;;;3.78;2.25;;;;;;;;;;7088451;28;20040;-82
2021/06/07 15:21:21;;;;;;;4.07;2.60;;;;;;;;;;7087374;28;20052;-84
2021/06/07 15:24:42;;;;;;;3.50;2.60;;;;;;;;;;7089692;28;20122;-82
2021/06/07 15:28:03;;;;;;;2.70;2.50;;;;;;;;;;7088339;28;20035;-83
2021/06/07 15:31:24;;;;;;;4.50;2.70;;;;;;;;;;7083637;28;20051;-83
2021/06/07 15:34:45;;;;;;;2.90;2.60;;;;;;;;;;7072487;28;20047;-81
2021/06/07 15:38:22;;;;;;;6.78;2.67;;;;;;;;;;7084078;28;20043;-79
2021/06/07 15:41:43;;;;;;;3.17;2.40;;;;;;;;;;7090670;28;20061;-80
2021/06/07 15:45:04;;;;;;;2.70;2.50;;;;;;;;;;7089607;28;20051;-81
2021/06/07 15:48:26;;;;;;;4.85;2.83;;;;;;;;;;7092409;27;20138;-82
2021/06/07 15:51:49;;;;;;;3.30;2.70;;;;;;;;;;7087344;28;20067;-81
2021/06/07 15:55:10;;;;;;;2.97;2.42;;;;;;;;;;7093081;28;20134;-81
2021/06/07 15:58:31;;;;;;;3.50;2.63;;;;;;;;;;7090887;28;20058;-80
2021/06/07 16:01:51;;;;;;;3.10;2.30;;;;;;;;;;7088245;28;20496;-80
2021/06/07 16:05:12;;;;;;;6.20;2.42;;;;;;;;;;7087501;28;20070;-80
2021/06/07 16:08:34;;;;;;;3.47;2.33;;;;;;;;;;7080511;28;20054;-81
2021/06/07 16:11:55;;;;;;;3.17;2.63;;;;;;;;;;7081262;28;20498;-81
2021/06/07 16:15:15;;;;;;;5.72;2.60;;;;;;;;;;7089150;28;20058;-80
2021/06/07 16:21:57;;;;;;;5.85;2.70;;;;;;;;;;7078638;27;20161;-81
2021/06/07 16:25:18;;;;;;;2.88;2.40;;;;;;;;;;7085780;28;20085;-80
2021/06/07 16:28:38;;;;;;;3.83;2.53;;;;;;;;;;7065071;28;20043;-79
2021/06/07 16:31:59;;;;;;;4.28;2.60;;;;;;;;;;7087063;27;20497;-80
2021/06/07 16:35:20;;;;;;;3.85;2.70;;;;;;;;;;7083029;28;20051;-79
2021/06/07 16:38:42;;;;;;;2.67;2.47;;;;;;;;;;7086478;27;20478;-82
2021/06/07 16:42:03;;;;;;;4.38;2.70;;;;;;;;;;7093203;28;20031;-79
2021/06/07 16:45:24;;;;;;;3.15;2.40;;;;;;;;;;7067373;28;20054;-78
2021/06/07 16:48:44;;;;;;;5.00;2.20;;;;;;;;;;7059154;28;20047;-82
2021/06/07 16:52:05;;;;;;;5.13;2.53;;;;;;;;;;7089678;28;20054;-80
2021/06/07 16:55:27;;;;;;;5.80;2.35;;;;;;;;;;7082105;28;20080;-79
2021/06/07 16:58:48;;;;;;;2.50;2.30;;;;;;;;;;7076325;28;20055;-80
2021/06/07 17:02:09;;;;;;;2.47;2.25;;;;;;;;;;7082608;28;20096;-78
2021/06/07 17:05:30;;;;;;;3.53;2.47;;;;;;;;;;7062830;28;20043;-79
2021/06/07 17:08:51;;;;;;;7.90;2.65;;;;;;;;;;7068869;28;20047;-79
2021/06/07 17:12:14;;;;;;;2.53;2.15;;;;;;;;;;7088553;28;20058;-79
2021/06/07 17:15:35;;;;;;;3.80;2.72;;;;;;;;;;7067593;27;20134;-79
2021/06/07 17:18:55;;;;;;;4.75;2.22;;;;;;;;;;7088839;27;20062;-79
2021/06/07 17:22:16;;;;;;;3.00;1.95;;;;;;;;;;7088705;28;20090;-78
2021/06/07 17:25:37;;;;;;;2.17;1.98;;;;;;;;;;7088493;28;20047;-79
2021/06/07 17:28:57;;;;;;;2.35;2.15;;;;;;;;;;7087940;28;20043;-79
2021/06/07 17:32:18;;;;;;;4.63;2.20;;;;;;;;;;7085309;28;20043;-78
2021/06/07 17:35:39;;;;;;;9.10;2.40;;;;;;;;;;7087128;27;20054;-77
2021/06/07 17:38:59;;;;;;;10.30;2.33;;;;;;;;;;7087363;28;20047;-77
2021/06/07 17:42:20;;;;;;;10.45;2.60;;;;;;;;;;7087421;28;20111;-78
2021/06/07 17:45:40;;;;;;;4.45;2.50;;;;;;;;;;7087511;28;20047;-77
2021/06/07 17:49:00;;;;;;;6.88;2.35;;;;;;;;;;7087454;28;20039;-77
2021/06/07 17:52:21;;;;;;;9.95;2.40;;;;;;;;;;7079934;28;20048;-76
2021/06/07 17:55:41;;;;;;;6.65;2.40;;;;;;;;;;7085542;28;20043;-77
2021/06/07 17:59:02;;;;;;;4.85;2.10;;;;;;;;;;7084014;27;20050;-78
2021/06/07 18:02:22;;;;;;;4.45;2.30;;;;;;;;;;7076933;28;20091;-75
2021/06/07 18:05:42;;;;;;;5.75;2.35;;;;;;;;;;7080350;28;20398;-75
2021/06/07 18:09:04;;;;;;;6.85;2.78;;;;;;;;;;7082208;28;20063;-75
2021/06/07 18:12:25;;;;;;;8.40;2.20;;;;;;;;;;7088093;27;20055;-75
2021/06/07 18:15:45;;;;;;;9.23;2.35;;;;;;;;;;7089909;28;20055;-77
2021/06/07 18:19:06;;;;;;;19.58;2.65;;;;;;;;;;7088901;28;20550;-76
2021/06/07 18:22:26;;;;;;;7.53;2.88;;;;;;;;;;7090743;28;20050;-75
2021/06/07 18:25:47;;;;;;;8.60;2.33;;;;;;;;;;7090488;28;20073;-75
2021/06/07 18:29:07;;;;;;;8.18;2.45;;;;;;;;;;7089489;28;20047;-76
2021/06/07 18:32:28;;;;;;;12.10;2.78;;;;;;;;;;7088139;28;20089;-75
2021/06/07 18:35:51;;;;;;;13.65;2.90;;;;;;;;;;7088843;28;20058;-75
2021/06/07 18:39:11;;;;;;;13.90;2.80;;;;;;;;;;7090065;28;20074;-76
2021/06/07 18:42:32;;;;;;;15.95;2.63;;;;;;;;;;7090587;28;20398;-75
2021/06/07 18:45:52;;;;;;;4.15;2.22;;;;;;;;;;7089760;28;20493;-77
2021/06/07 18:49:13;;;;;;;8.73;2.45;;;;;;;;;;7089993;28;20051;-76
2021/06/07 18:52:33;;;;;;;11.65;2.25;;;;;;;;;;7089329;28;20074;-75
2021/06/07 18:55:57;;;;;;;11.00;2.55;;;;;;;;;;7089737;28;20057;-76
2021/06/07 18:59:17;;;;;;;8.90;2.42;;;;;;;;;;7089860;28;20542;-75
2021/06/07 19:02:38;;;;;;;5.70;2.20;;;;;;;;;;7089447;28;20075;-76
2021/06/07 19:05:59;;;;;;;7.60;2.67;;;;;;;;;;7089853;28;20050;-76
2021/06/07 19:09:20;;;;;;;6.50;2.30;;;;;;;;;;7089443;28;20051;-75
2021/06/07 19:12:41;;;;;;;7.60;1.95;;;;;;;;;;7089248;28;20043;-75
2021/06/07 19:16:02;;;;;;;6.03;1.92;;;;;;;;;;7089164;28;20043;-76
2021/06/07 19:19:22;;;;;;;5.43;1.98;;;;;;;;;;7090032;28;20134;-76
2021/06/07 19:22:43;;;;;;;5.38;2.10;;;;;;;;;;7088726;27;20456;-76
2021/06/07 19:26:03;;;;;;;4.57;1.90;;;;;;;;;;7089186;28;20046;-76
2021/06/07 19:29:24;;;;;;;6.88;2.10;;;;;;;;;;7088991;28;20078;-75
2021/06/07 19:32:47;;;;;;;4.03;2.15;;;;;;;;;;7089164;28;20043;-76
2021/06/07 19:36:07;;;;;;;4.18;1.83;;;;;;;;;;7089128;28;20130;-76
2021/06/07 19:39:28;;;;;;;4.20;2.15;;;;;;;;;;7089044;28;20043;-76
2021/06/07 19:42:48;;;;;;;4.68;1.70;;;;;;;;;;7085177;28;20086;-75
2021/06/07 19:46:09;;;;;;;5.60;2.45;;;;;;;;;;7088565;28;20039;-76
2021/06/07 19:49:29;;;;;;;3.13;1.80;;;;;;;;;;7088638;28;20176;-75
2021/06/07 19:52:51;;;;;;;3.33;2.20;;;;;;;;;;7088258;28;20100;-75
2021/06/07 19:56:12;;;;;;;3.83;2.03;;;;;;;;;;7088533;28;20057;-75
2021/06/07 19:59:32;;;;;;;3.97;2.00;;;;;;;;;;7088297;28;20059;-76
2021/06/07 20:02:52;;;;;;;6.43;2.35;;;;;;;;;;7087477;28;20145;-75
2021/06/07 20:06:13;;;;;;;4.43;2.20;;;;;;;;;;7088101;28;20080;-76
2021/06/07 20:09:33;;;;;;;5.20;1.77;;;;;;;;;;7088292;28;20051;-76
2021/06/07 20:12:54;;;;;;;3.08;1.98;;;;;;;;;;7087749;28;20040;-76
2021/06/07 20:16:15;;;;;;;3.92;2.05;;;;;;;;;;7088444;28;20043;-75
2021/06/07 20:19:35;;;;;;;4.55;1.80;;;;;;;;;;7088397;28;20054;-75
2021/06/07 20:22:55;;;;;;;5.55;2.00;;;;;;;;;;7088362;28;20085;-76
2021/06/07 20:26:16;;;;;;;5.80;1.73;;;;;;;;;;7088461;28;20050;-75
2021/06/07 20:29:36;;;;;;;3.97;1.70;;;;;;;;;;7088177;28;20090;-77
2021/06/07 20:32:57;;;;;;;2.95;1.80;;;;;;;;;;7086952;27;20039;-76
2021/06/07 20:36:18;;;;;;;5.68;2.38;;;;;;;;;;7088366;28;20062;-75
2021/06/07 20:39:38;;;;;;;6.20;2.72;;;;;;;;;;7087745;28;20050;-76
2021/06/07 20:42:58;;;;;;;3.53;1.95;;;;;;;;;;7088541;28;20089;-76
2021/06/07 20:46:20;;;;;;;3.40;1.95;;;;;;;;;;7088410;28;20043;-76
2021/06/07 20:49:40;;;;;;;7.32;2.05;;;;;;;;;;7087360;28;20042;-80